createdAt,value
2022-12-04T00:01:10.769Z,94.90
2022-12-04T00:03:39.114Z,96.13
2022-12-04T00:06:17.657Z,121.55
2022-12-04T00:08:45.310Z,149.25
2022-12-04T00:11:13.519Z,107.20
2022-12-04T00:13:40.743Z,92.00
2022-12-04T00:16:09.360Z,91.05
2022-12-04T00:18:36.584Z,98.82
2022-12-04T00:21:05.787Z,111.55
2022-12-04T00:23:33.249Z,94.50
2022-12-04T00:26:05.898Z,86.20
2022-12-04T00:28:33.294Z,86.15
2022-12-04T00:31:00.655Z,81.25
2022-12-04T00:33:27.651Z,88.10
2022-12-04T00:36:01.572Z,84.63
2022-12-04T00:38:28.639Z,88.25
2022-12-04T00:40:56.075Z,85.60
2022-12-04T00:43:23.554Z,82.78
2022-12-04T00:45:51.096Z,81.00
2022-12-04T00:48:18.090Z,85.95
2022-12-04T00:50:45.103Z,89.70
2022-12-04T00:53:13.177Z,82.75
2022-12-04T00:55:41.543Z,88.78
2022-12-04T00:58:08.949Z,84.05
2022-12-04T01:00:41.698Z,98.50
2022-12-04T01:03:09.264Z,87.90
2022-12-04T01:05:44.889Z,83.60
2022-12-04T01:08:13.294Z,82.10
2022-12-04T01:10:41.516Z,79.07
2022-12-04T01:13:09.203Z,83.65
2022-12-04T01:15:40.411Z,83.97
2022-12-04T01:18:07.427Z,86.05
2022-12-04T01:20:34.372Z,90.10
2022-12-04T01:23:01.555Z,88.05
2022-12-04T01:25:28.736Z,94.95
2022-12-04T01:27:55.682Z,85.75
2022-12-04T01:30:22.789Z,86.93
2022-12-04T01:32:49.695Z,93.80
2022-12-04T01:35:16.671Z,90.85
2022-12-04T01:37:43.648Z,84.00
2022-12-04T01:40:14.906Z,99.25
2022-12-04T01:42:41.863Z,87.97
2022-12-04T01:45:41.668Z,97.53
2022-12-04T01:48:26.853Z,92.40
2022-12-04T01:50:56.909Z,85.90
2022-12-04T01:53:23.976Z,82.10
2022-12-04T01:55:51.110Z,83.72
2022-12-04T01:58:20.546Z,71.82
2022-12-04T02:00:51.722Z,73.20
2022-12-04T02:03:18.950Z,79.95
2022-12-04T02:05:45.834Z,84.13
2022-12-04T02:08:13.033Z,69.47
2022-12-04T02:10:51.706Z,85.88
2022-12-04T02:13:27.715Z,74.80
2022-12-04T02:16:02.129Z,70.22
2022-12-04T02:18:31.980Z,78.25
2022-12-04T02:21:14.042Z,66.97
2022-12-04T02:23:46.883Z,70.88
2022-12-04T02:26:31.712Z,67.80
2022-12-04T02:29:20.089Z,72.20
2022-12-04T02:32:05.264Z,74.95
2022-12-04T02:34:44.149Z,79.07
2022-12-04T02:37:26.227Z,77.20
2022-12-04T02:40:25.670Z,67.40
2022-12-04T02:43:01.770Z,59.88
2022-12-04T02:45:33.023Z,62.20
2022-12-04T02:48:02.935Z,62.42
2022-12-04T02:50:31.193Z,63.57
2022-12-04T02:53:20.333Z,60.55
2022-12-04T02:55:59.910Z,61.80
2022-12-04T02:58:32.443Z,61.58
2022-12-04T03:01:01.981Z,71.75
2022-12-04T03:03:30.933Z,75.72
2022-12-04T03:06:11.001Z,73.18
2022-12-04T03:08:42.512Z,75.32
2022-12-04T03:11:09.581Z,82.18
2022-12-04T03:13:50.156Z,83.32
2022-12-04T03:16:23.825Z,86.80
2022-12-04T03:19:00.705Z,84.10
2022-12-04T03:21:31.040Z,79.53
2022-12-04T03:24:04.623Z,90.38
2022-12-04T03:26:40.854Z,85.82
2022-12-04T03:29:23.601Z,83.18
2022-12-04T03:31:58.838Z,88.90
2022-12-04T03:34:30.883Z,85.00
2022-12-04T03:37:01.699Z,91.93
2022-12-04T03:39:38.514Z,84.85
2022-12-04T03:42:10.152Z,89.32
2022-12-04T03:45:09.754Z,90.47
2022-12-04T03:47:50.895Z,88.88
2022-12-04T03:50:38.859Z,99.88
2022-12-04T03:53:12.433Z,84.07
2022-12-04T03:55:47.697Z,83.05
2022-12-04T03:58:18.722Z,83.88
2022-12-04T04:00:46.593Z,86.63
2022-12-04T04:03:15.334Z,81.90
2022-12-04T04:05:46.880Z,79.65
2022-12-04T04:08:26.775Z,78.20
2022-12-04T04:11:15.064Z,80.57
2022-12-04T04:14:40.861Z,89.35
2022-12-04T04:17:31.268Z,77.65
2022-12-04T04:20:27.693Z,80.75
2022-12-04T04:23:15.502Z,87.32
2022-12-04T04:25:44.001Z,96.25
2022-12-04T04:28:39.632Z,90.57
2022-12-04T04:31:36.630Z,88.00
2022-12-04T04:34:12.635Z,92.97
2022-12-04T04:37:09.764Z,98.95
2022-12-04T04:39:45.879Z,89.55
2022-12-04T04:42:15.923Z,88.32
2022-12-04T04:45:04.525Z,87.50
2022-12-04T04:47:43.584Z,84.85
2022-12-04T04:50:12.032Z,76.90
2022-12-04T04:52:41.824Z,77.00
2022-12-04T04:55:09.448Z,80.53
2022-12-04T04:57:37.091Z,83.10
2022-12-04T05:00:16.172Z,76.88
2022-12-04T05:02:43.862Z,73.05
2022-12-04T05:05:12.094Z,73.30
2022-12-04T05:07:39.134Z,72.38
2022-12-04T05:10:07.189Z,76.45
2022-12-04T05:12:34.322Z,76.35
2022-12-04T05:15:01.471Z,78.47
2022-12-04T05:17:28.467Z,71.55
2022-12-04T05:19:57.035Z,73.50
2022-12-04T05:22:26.215Z,79.80
2022-12-04T05:24:53.990Z,77.18
2022-12-04T05:27:22.128Z,75.50
2022-12-04T05:29:49.109Z,72.53
2022-12-04T05:32:16.147Z,71.90
2022-12-04T05:34:43.093Z,79.72
2022-12-04T05:37:10.021Z,77.38
2022-12-04T05:39:36.991Z,69.75
2022-12-04T05:42:03.965Z,71.28
2022-12-04T05:44:30.825Z,71.72
2022-12-04T05:46:57.732Z,68.72
2022-12-04T05:49:24.850Z,71.22
2022-12-04T05:51:52.043Z,68.80
2022-12-04T05:54:19.540Z,70.50
2022-12-04T05:56:46.796Z,63.67
2022-12-04T05:59:14.493Z,66.93
2022-12-04T06:01:41.931Z,81.10
2022-12-04T06:04:09.723Z,73.25
2022-12-04T06:06:37.277Z,74.68
2022-12-04T06:09:07.469Z,73.38
2022-12-04T06:11:37.245Z,70.28
2022-12-04T06:14:06.608Z,71.50
2022-12-04T06:16:39.478Z,69.40
2022-12-04T06:19:09.555Z,66.32
2022-12-04T06:21:38.788Z,69.00
2022-12-04T06:24:06.286Z,72.65
2022-12-04T06:26:33.257Z,74.63
2022-12-04T06:29:00.742Z,76.47
2022-12-04T06:31:28.995Z,71.50
2022-12-04T06:33:57.326Z,80.40
2022-12-04T06:36:24.677Z,70.32
2022-12-04T06:38:53.032Z,72.07
2022-12-04T06:41:21.379Z,66.60
2022-12-04T06:43:49.227Z,69.75
2022-12-04T06:46:19.505Z,68.75
2022-12-04T06:48:46.983Z,67.50
2022-12-04T06:51:17.331Z,70.72
2022-12-04T06:53:44.449Z,68.05
2022-12-04T06:56:14.727Z,71.57
2022-12-04T06:58:41.666Z,69.75
2022-12-04T07:01:10.941Z,67.00
2022-12-04T07:03:38.649Z,64.07
2022-12-04T07:06:15.695Z,64.93
2022-12-04T07:08:43.833Z,67.57
2022-12-04T07:11:11.794Z,67.88
2022-12-04T07:13:38.885Z,63.85
2022-12-04T07:16:07.549Z,67.22
2022-12-04T07:18:35.810Z,64.93
2022-12-04T07:21:07.886Z,67.47
2022-12-04T07:23:35.768Z,66.03
2022-12-04T07:26:07.978Z,66.57
2022-12-04T07:28:36.369Z,64.95
2022-12-04T07:31:12.274Z,65.22
2022-12-04T07:33:39.621Z,65.75
2022-12-04T07:36:08.483Z,65.57
2022-12-04T07:38:36.086Z,60.78
2022-12-04T07:41:04.936Z,61.55
2022-12-04T07:43:32.187Z,61.97
2022-12-04T07:46:00.195Z,58.67
2022-12-04T07:48:33.036Z,62.83
2022-12-04T07:51:11.221Z,67.03
2022-12-04T07:53:38.791Z,61.25
2022-12-04T07:56:06.400Z,63.33
2022-12-04T07:58:33.960Z,67.57
2022-12-04T08:01:11.357Z,66.05
2022-12-04T08:03:45.268Z,63.10
2022-12-04T08:06:15.168Z,59.60
2022-12-04T08:08:42.149Z,61.25
2022-12-04T08:11:12.091Z,59.85
2022-12-04T08:13:39.182Z,61.47
2022-12-04T08:16:07.650Z,60.75
2022-12-04T08:18:34.889Z,61.83
2022-12-04T08:21:13.204Z,65.75
2022-12-04T08:23:41.680Z,63.85
2022-12-04T08:26:09.266Z,58.75
2022-12-04T08:28:36.802Z,58.15
2022-12-04T08:31:18.875Z,62.28
2022-12-04T08:33:46.873Z,62.15
2022-12-04T08:36:16.493Z,63.38
2022-12-04T08:38:43.864Z,58.08
2022-12-04T08:41:13.596Z,55.28
2022-12-04T08:43:41.220Z,56.75
2022-12-04T08:46:11.168Z,60.25
2022-12-04T08:48:38.521Z,59.70
2022-12-04T08:51:08.028Z,55.10
2022-12-04T08:53:36.822Z,62.78
2022-12-04T08:56:04.964Z,57.20
2022-12-04T08:58:32.037Z,55.03
2022-12-04T09:01:07.741Z,55.28
2022-12-04T09:03:35.458Z,56.13
2022-12-04T09:06:03.322Z,55.10
2022-12-04T09:08:30.659Z,52.45
2022-12-04T09:11:04.851Z,61.13
2022-12-04T09:13:31.945Z,58.60
2022-12-04T09:15:59.247Z,55.72
2022-12-04T09:18:26.346Z,57.58
2022-12-04T09:20:58.038Z,54.35
2022-12-04T09:23:26.226Z,55.00
2022-12-04T09:25:53.440Z,58.42
2022-12-04T09:28:20.644Z,59.45
2022-12-04T09:30:57.709Z,55.80
2022-12-04T09:33:24.749Z,55.67
2022-12-04T09:35:51.683Z,54.22
2022-12-04T09:38:18.676Z,55.33
2022-12-04T09:40:57.980Z,55.95
2022-12-04T09:43:39.131Z,59.83
2022-12-04T09:46:12.558Z,55.40
2022-12-04T09:48:41.997Z,57.28
2022-12-04T09:51:18.793Z,58.80
2022-12-04T09:53:49.729Z,55.88
2022-12-04T09:56:20.165Z,54.30
2022-12-04T09:59:03.294Z,51.15
2022-12-04T10:01:47.374Z,54.72
2022-12-04T10:04:15.602Z,52.25
2022-12-04T10:07:13.661Z,53.03
2022-12-04T10:09:49.708Z,51.28
2022-12-04T10:12:35.135Z,48.75
2022-12-04T10:15:14.297Z,50.80
2022-12-04T10:17:58.483Z,48.75
2022-12-04T10:20:56.237Z,46.22
2022-12-04T10:23:42.820Z,45.60
2022-12-04T10:26:17.886Z,45.08
2022-12-04T10:28:55.610Z,41.88
2022-12-04T10:31:24.012Z,40.50
2022-12-04T10:33:54.219Z,42.40
2022-12-04T10:36:25.743Z,35.08
2022-12-04T10:39:01.903Z,39.10
2022-12-04T10:41:34.305Z,39.75
2022-12-04T10:44:01.321Z,37.67
2022-12-04T10:46:33.677Z,39.55
2022-12-04T10:49:24.924Z,38.53
2022-12-04T10:51:51.888Z,39.65
2022-12-04T10:54:21.899Z,33.83
2022-12-04T10:57:09.769Z,38.08
2022-12-04T10:59:50.564Z,35.88
2022-12-04T11:05:01.787Z,34.28
2022-12-04T11:07:30.885Z,32.08
2022-12-04T11:10:00.545Z,32.05
2022-12-04T11:12:27.530Z,34.88
2022-12-04T11:15:06.880Z,35.97
2022-12-04T11:17:34.089Z,35.53
2022-12-04T11:20:07.019Z,36.85
2022-12-04T11:22:54.280Z,39.33
2022-12-04T11:25:22.565Z,32.22
2022-12-04T11:27:52.426Z,31.60
2022-12-04T11:30:34.814Z,35.13
2022-12-04T11:33:02.497Z,32.70
2022-12-04T11:35:30.243Z,35.67
2022-12-04T11:38:17.898Z,37.13
2022-12-04T11:40:53.195Z,36.58
2022-12-04T11:43:21.106Z,37.08
2022-12-04T11:46:00.246Z,38.40
2022-12-04T11:48:27.692Z,38.50
2022-12-04T11:51:08.669Z,37.53
2022-12-04T11:53:50.026Z,43.03
2022-12-04T11:56:36.110Z,36.58
2022-12-04T11:59:49.494Z,38.30
2022-12-04T12:02:45.599Z,39.58
2022-12-04T12:05:45.078Z,43.78
2022-12-04T12:08:27.238Z,38.20
2022-12-04T12:11:03.158Z,39.40
2022-12-04T12:13:48.358Z,41.33
2022-12-04T12:16:18.040Z,38.53
2022-12-04T12:18:51.110Z,37.58
2022-12-04T12:21:36.670Z,36.97
2022-12-04T12:24:27.254Z,40.42
2022-12-04T12:27:40.425Z,40.03
2022-12-04T12:30:12.916Z,42.33
2022-12-04T12:32:49.215Z,44.33
2022-12-04T12:35:27.523Z,45.17
2022-12-04T12:37:58.451Z,46.13
2022-12-04T12:40:39.131Z,45.22
2022-12-04T12:43:16.955Z,46.92
2022-12-04T12:45:50.132Z,48.03
2022-12-04T12:48:29.223Z,49.92
2022-12-04T12:51:28.960Z,44.28
2022-12-04T12:53:59.099Z,44.55
2022-12-04T12:56:38.675Z,43.13
2022-12-04T12:59:10.098Z,44.00
2022-12-04T13:01:40.397Z,46.88
2022-12-04T13:04:15.109Z,44.90
2022-12-04T13:06:44.117Z,41.45
2022-12-04T13:09:30.321Z,40.83
2022-12-04T13:12:04.877Z,42.97
2022-12-04T13:14:31.790Z,38.92
2022-12-04T13:17:06.296Z,44.45
2022-12-04T13:19:41.977Z,43.45
2022-12-04T13:22:08.755Z,43.78
2022-12-04T13:25:05.130Z,40.70
2022-12-04T13:28:03.452Z,47.20
2022-12-04T13:30:33.364Z,41.72
2022-12-04T13:33:37.588Z,44.60
2022-12-04T13:36:49.512Z,49.00
2022-12-04T13:39:19.942Z,54.00
2022-12-04T13:41:47.109Z,54.33
2022-12-04T13:44:20.773Z,53.53
2022-12-04T13:46:56.834Z,49.80
2022-12-04T13:49:27.351Z,54.92
2022-12-04T13:51:55.730Z,53.80
2022-12-04T13:54:24.139Z,47.13
2022-12-04T13:56:54.158Z,70.03
2022-12-04T14:00:42.975Z,41.53
2022-12-04T14:03:36.413Z,45.67
2022-12-04T14:06:07.096Z,42.92
2022-12-04T14:08:39.905Z,43.15
2022-12-04T14:11:14.546Z,40.85
2022-12-04T14:19:37.722Z,38.88
2022-12-04T14:23:36.896Z,39.33
2022-12-04T14:26:05.620Z,43.33
2022-12-04T14:28:36.035Z,41.55
2022-12-04T14:31:14.648Z,44.95
2022-12-04T14:34:04.431Z,43.88
2022-12-04T14:36:35.375Z,44.83
2022-12-04T14:39:17.139Z,45.35
2022-12-04T14:41:44.067Z,48.42
2022-12-04T14:44:31.810Z,43.92
2022-12-04T14:47:17.159Z,47.00
2022-12-04T14:49:43.820Z,46.50
2022-12-04T14:52:10.463Z,42.00
2022-12-04T14:54:51.975Z,41.90
2022-12-04T14:57:18.659Z,44.55
2022-12-04T14:59:49.509Z,41.17
2022-12-04T15:02:18.215Z,40.25
2022-12-04T15:04:46.647Z,44.75
2022-12-04T15:07:28.532Z,43.05
2022-12-04T15:10:15.522Z,45.20
2022-12-04T15:12:45.254Z,41.33
2022-12-04T15:15:25.952Z,48.97
2022-12-04T15:20:20.128Z,38.00
2022-12-04T15:22:47.612Z,37.80
2022-12-04T15:25:22.522Z,40.90
2022-12-04T15:27:50.694Z,36.75
2022-12-04T15:30:18.767Z,37.35
2022-12-04T15:32:46.767Z,35.55
2022-12-04T15:35:17.431Z,40.00
2022-12-04T15:40:28.398Z,44.25
2022-12-04T15:43:06.180Z,43.70
2022-12-04T15:45:34.750Z,40.92
2022-12-04T15:48:01.714Z,42.65
2022-12-04T15:50:29.501Z,42.63
2022-12-04T15:53:02.444Z,44.50
2022-12-04T15:55:30.929Z,38.55
2022-12-04T15:57:57.657Z,47.13
2022-12-04T16:00:27.531Z,43.22
2022-12-04T16:02:55.309Z,41.40
2022-12-04T16:05:22.376Z,43.72
2022-12-04T16:07:50.521Z,39.65
2022-12-04T16:10:24.980Z,42.42
2022-12-04T16:13:02.641Z,44.75
2022-12-04T16:15:36.735Z,45.88
2022-12-04T16:18:06.177Z,44.05
2022-12-04T16:20:37.021Z,43.97
2022-12-04T16:23:05.024Z,43.10
2022-12-04T16:25:32.294Z,40.63
2022-12-04T16:28:02.518Z,42.50
2022-12-04T16:30:32.114Z,38.95
2022-12-04T16:32:58.829Z,43.88
2022-12-04T16:35:25.720Z,38.78
2022-12-04T16:37:52.752Z,43.15
2022-12-04T16:40:19.549Z,43.47
2022-12-04T16:42:46.317Z,43.13
2022-12-04T16:45:19.180Z,49.47
2022-12-04T16:47:47.630Z,46.88
2022-12-04T16:50:14.524Z,45.58
2022-12-04T16:52:41.381Z,44.15
2022-12-04T16:55:35.819Z,41.72
2022-12-04T16:58:02.952Z,41.10
2022-12-04T17:00:29.902Z,36.35
2022-12-04T17:02:56.888Z,41.78
2022-12-04T17:05:27.829Z,39.70
2022-12-04T17:07:57.393Z,39.22
2022-12-04T17:10:24.670Z,42.83
2022-12-04T17:12:56.383Z,40.15
2022-12-04T17:15:23.209Z,36.33
2022-12-04T17:17:50.581Z,40.60
2022-12-04T17:20:18.197Z,42.88
2022-12-04T17:22:45.018Z,41.20
2022-12-04T17:25:12.270Z,39.22
2022-12-04T17:27:39.446Z,45.60
2022-12-04T17:30:07.222Z,57.65
2022-12-04T17:32:35.260Z,46.28
2022-12-04T17:35:02.908Z,41.03
2022-12-04T17:37:29.781Z,43.08
2022-12-04T17:39:56.873Z,43.58
2022-12-04T17:42:23.638Z,36.40
2022-12-04T17:44:50.529Z,36.15
2022-12-04T17:47:19.040Z,37.15
2022-12-04T17:49:45.869Z,34.83
2022-12-04T17:52:12.665Z,37.33
2022-12-04T17:54:39.568Z,33.58
2022-12-04T17:57:06.670Z,50.53
2022-12-04T17:59:33.472Z,43.75
2022-12-04T18:05:35.694Z,43.20
2022-12-04T18:08:02.457Z,38.03
2022-12-04T18:14:57.345Z,33.20
2022-12-04T18:17:24.146Z,39.15
2022-12-04T18:19:50.999Z,40.10
